createdAt,value
2023-02-23T00:57:29.402Z,23.24
2023-02-23T00:59:59.880Z,23.25
2023-02-23T01:02:33.291Z,23.47
2023-02-23T01:05:11.493Z,23.44
2023-02-23T01:07:41.577Z,23.48
2023-02-23T01:10:25.153Z,23.58
2023-02-23T01:12:55.576Z,23.49
2023-02-23T01:15:28.516Z,23.44
2023-02-23T01:17:58.422Z,23.46
2023-02-23T01:20:28.882Z,23.45
2023-02-23T01:22:58.381Z,23.59
2023-02-23T01:25:31.463Z,23.72
2023-02-23T01:28:02.292Z,23.73
2023-02-23T01:30:32.751Z,23.66
2023-02-23T01:33:04.246Z,23.36
2023-02-23T01:35:35.274Z,23.18
2023-02-23T01:38:05.285Z,23.02
2023-02-23T01:40:37.958Z,22.90
2023-02-23T01:43:12.504Z,22.67
2023-02-23T01:45:44.246Z,22.90
2023-02-23T01:48:21.047Z,22.94
2023-02-23T01:51:03.047Z,22.93
2023-02-23T01:53:34.983Z,22.94
2023-02-23T01:56:15.478Z,23.11
2023-02-23T01:58:49.447Z,23.19
2023-02-23T02:01:19.440Z,23.17
2023-02-23T02:03:59.191Z,23.03
2023-02-23T02:06:32.223Z,22.91
2023-02-23T02:09:11.226Z,22.87
2023-02-23T02:11:44.798Z,22.77
2023-02-23T02:14:17.420Z,22.45
2023-02-23T02:17:14.111Z,22.30
2023-02-23T02:19:46.917Z,22.29
2023-02-23T02:22:39.422Z,22.44
2023-02-23T02:25:21.327Z,22.49
2023-02-23T02:28:09.672Z,22.53
2023-02-23T02:31:20.277Z,22.73
2023-02-23T02:34:19.701Z,22.80
2023-02-23T02:37:09.034Z,22.75
2023-02-23T02:39:47.228Z,22.78
2023-02-23T02:42:23.198Z,22.77
2023-02-23T02:45:11.194Z,22.73
2023-02-23T02:47:53.496Z,22.82
2023-02-23T02:50:41.142Z,22.75
2023-02-23T02:53:15.732Z,22.71
2023-02-23T02:55:45.221Z,22.71
2023-02-23T02:58:18.565Z,22.70
2023-02-23T03:01:08.635Z,22.64
2023-02-23T03:03:59.052Z,22.64
2023-02-23T03:06:54.374Z,22.60
2023-02-23T03:09:52.272Z,22.55
2023-02-23T03:12:49.752Z,22.48
2023-02-23T03:15:57.208Z,22.47
2023-02-23T03:19:05.093Z,22.48
2023-02-23T03:22:04.603Z,22.62
2023-02-23T03:24:59.033Z,22.57
2023-02-23T03:27:56.533Z,22.53
2023-02-23T03:31:14.612Z,22.48
2023-02-23T03:34:25.611Z,22.49
2023-02-23T03:37:22.270Z,22.54
2023-02-23T03:40:16.336Z,22.53
2023-02-23T03:43:04.594Z,22.51
2023-02-23T03:46:00.477Z,22.42
2023-02-23T03:48:49.143Z,22.27
2023-02-23T03:51:37.260Z,22.22
2023-02-23T03:54:38.172Z,22.22
2023-02-23T03:57:27.266Z,22.20
2023-02-23T04:00:18.347Z,22.21
2023-02-23T04:03:10.113Z,22.14
2023-02-23T04:06:00.139Z,22.06
2023-02-23T04:08:54.373Z,22.04
2023-02-23T04:11:56.562Z,21.98
2023-02-23T04:15:07.993Z,21.96
2023-02-23T04:17:39.238Z,22.00
2023-02-23T04:20:09.963Z,22.00
2023-02-23T04:22:40.864Z,21.95
2023-02-23T04:25:12.402Z,21.92
2023-02-23T04:27:44.477Z,21.92
2023-02-23T04:30:13.762Z,21.87
2023-02-23T04:32:44.885Z,21.86
2023-02-23T04:35:18.860Z,21.86
2023-02-23T04:37:49.652Z,21.87
2023-02-23T04:40:19.161Z,21.81
2023-02-23T04:42:49.898Z,21.80
2023-02-23T04:45:19.421Z,21.82
2023-02-23T04:47:48.719Z,21.78
2023-02-23T04:50:19.135Z,21.75
2023-02-23T04:52:49.147Z,21.68
2023-02-23T04:55:23.476Z,21.64
2023-02-23T04:57:57.989Z,21.62
2023-02-23T05:00:30.154Z,21.71
2023-02-23T05:03:00.118Z,21.83
2023-02-23T05:05:30.913Z,21.83
2023-02-23T05:08:01.754Z,21.85
2023-02-23T05:10:38.639Z,21.86
2023-02-23T05:13:10.094Z,21.88
2023-02-23T05:15:41.066Z,21.87
2023-02-23T05:18:13.505Z,21.86
2023-02-23T05:20:47.915Z,21.94
2023-02-23T05:23:17.414Z,21.92
2023-02-23T05:25:48.234Z,21.81
2023-02-23T05:28:20.679Z,21.77
2023-02-23T05:30:50.755Z,21.73
2023-02-23T05:33:23.743Z,21.68
2023-02-23T05:35:52.724Z,21.64
2023-02-23T05:38:23.592Z,21.63
2023-02-23T05:41:15.806Z,21.69
2023-02-23T05:43:47.205Z,21.75
2023-02-23T05:46:19.200Z,21.84
2023-02-23T05:48:58.353Z,21.89
2023-02-23T05:51:28.372Z,21.91
2023-02-23T05:53:58.013Z,21.77
2023-02-23T05:56:28.129Z,21.68
2023-02-23T05:58:59.173Z,21.64
2023-02-23T06:01:33.286Z,21.63
2023-02-23T06:04:06.495Z,21.59
2023-02-23T06:06:38.706Z,21.63
2023-02-23T06:09:12.596Z,21.67
2023-02-23T06:11:43.152Z,21.76
2023-02-23T06:14:13.175Z,21.78
2023-02-23T06:16:49.083Z,21.71
2023-02-23T06:19:19.559Z,21.78
2023-02-23T06:21:51.497Z,21.79
2023-02-23T06:24:22.403Z,21.55
2023-02-23T06:26:52.559Z,21.47
2023-02-23T06:29:24.428Z,21.51
2023-02-23T06:31:54.233Z,21.53
2023-02-23T06:34:23.778Z,21.59
2023-02-23T06:36:55.836Z,21.54
2023-02-23T06:39:32.214Z,21.72
2023-02-23T06:42:01.475Z,21.87
2023-02-23T06:44:31.695Z,21.94
2023-02-23T06:47:04.614Z,22.05
2023-02-23T06:49:34.192Z,22.19
2023-02-23T06:52:06.252Z,22.29
2023-02-23T06:54:38.952Z,22.48
2023-02-23T06:57:10.552Z,22.64
2023-02-23T06:59:42.335Z,22.75
2023-02-23T07:02:14.375Z,22.88
2023-02-23T07:04:44.569Z,22.97
2023-02-23T07:07:14.852Z,23.05
2023-02-23T07:09:45.371Z,23.29
2023-02-23T07:12:19.488Z,23.41
2023-02-23T07:14:49.049Z,23.52
2023-02-23T07:17:19.499Z,23.61
2023-02-23T07:22:39.901Z,23.92
2023-02-23T07:25:11.605Z,23.82
2023-02-23T07:27:43.326Z,23.76
2023-02-23T07:30:14.257Z,23.58
2023-02-23T07:32:47.019Z,23.48
2023-02-23T07:35:19.892Z,23.43
2023-02-23T07:37:51.185Z,23.54
2023-02-23T07:40:21.067Z,23.89
2023-02-23T07:42:50.296Z,24.07
2023-02-23T07:45:22.228Z,24.22
2023-02-23T07:47:53.146Z,24.33
2023-02-23T07:50:26.700Z,24.36
2023-02-23T07:52:56.026Z,24.27
2023-02-23T07:55:25.510Z,24.30
2023-02-23T07:57:56.100Z,24.33
2023-02-23T08:00:27.496Z,24.27
2023-02-23T08:03:03.368Z,24.19
2023-02-23T08:05:34.180Z,24.13
2023-02-23T08:08:05.111Z,24.15
2023-02-23T08:10:39.388Z,24.34
2023-02-23T08:13:17.687Z,24.45
2023-02-23T08:15:47.164Z,24.51
2023-02-23T08:18:16.574Z,24.68
2023-02-23T08:20:46.236Z,24.80
2023-02-23T08:23:20.473Z,24.96
2023-02-23T08:25:49.993Z,25.17
2023-02-23T08:28:23.303Z,25.26
2023-02-23T08:30:53.970Z,25.45
2023-02-23T08:33:25.582Z,25.47
2023-02-23T08:35:54.912Z,25.32
2023-02-23T08:38:25.333Z,25.53
2023-02-23T08:40:55.629Z,25.98
2023-02-23T08:43:25.582Z,26.20
2023-02-23T08:45:56.526Z,26.22
2023-02-23T08:48:27.731Z,26.25
2023-02-23T08:51:00.285Z,26.41
2023-02-23T08:53:30.693Z,26.63
2023-02-23T08:56:03.733Z,26.80
2023-02-23T08:58:34.030Z,26.85
2023-02-23T09:01:05.541Z,26.76
2023-02-23T09:03:39.787Z,26.80
2023-02-23T09:06:17.994Z,26.97
2023-02-23T09:08:48.770Z,27.29
2023-02-23T09:11:20.259Z,27.43
2023-02-23T09:13:50.317Z,27.38
2023-02-23T09:16:20.347Z,27.24
2023-02-23T09:18:49.630Z,26.85
2023-02-23T09:21:27.223Z,26.51
2023-02-23T09:23:58.369Z,26.64
2023-02-23T09:26:30.029Z,26.94
2023-02-23T09:29:00.432Z,27.31
2023-02-23T09:31:32.860Z,27.48
2023-02-23T09:34:02.752Z,27.49
2023-02-23T09:36:35.427Z,27.44
2023-02-23T09:39:07.780Z,27.29
2023-02-23T09:41:41.091Z,27.34
2023-02-23T09:44:40.556Z,27.49
2023-02-23T09:47:39.109Z,27.85
2023-02-23T09:50:25.378Z,28.13
2023-02-23T09:53:00.907Z,28.11
2023-02-23T09:55:31.955Z,27.84
2023-02-23T09:58:23.245Z,27.88
2023-02-23T10:01:30.757Z,28.01
2023-02-23T10:04:08.577Z,28.19
2023-02-23T10:06:42.019Z,28.30
2023-02-23T10:09:41.754Z,28.41
2023-02-23T10:12:18.756Z,28.53
2023-02-23T10:15:07.566Z,28.66
2023-02-23T10:17:53.455Z,28.72
2023-02-23T10:20:47.371Z,28.60
2023-02-23T10:23:34.036Z,28.55
2023-02-23T10:26:03.722Z,28.61
2023-02-23T10:28:37.089Z,28.55
2023-02-23T10:31:31.900Z,28.44
2023-02-23T10:34:06.450Z,28.38
2023-02-23T10:36:40.295Z,28.37
2023-02-23T10:39:10.134Z,28.55
2023-02-23T10:41:41.194Z,28.73
2023-02-23T10:44:30.236Z,28.99
2023-02-23T10:47:09.221Z,29.13
2023-02-23T10:49:48.624Z,29.33
2023-02-23T10:52:42.275Z,29.55
2023-02-23T10:55:26.420Z,29.74
2023-02-23T10:58:17.452Z,29.90
2023-02-23T11:01:01.779Z,29.88
2023-02-23T11:03:33.722Z,29.85
2023-02-23T11:06:04.692Z,29.55
2023-02-23T11:08:37.276Z,29.31
2023-02-23T11:11:16.931Z,29.28
2023-02-23T11:13:49.517Z,29.24
2023-02-23T11:16:27.694Z,29.31
2023-02-23T11:19:02.139Z,29.52
2023-02-23T11:21:39.352Z,29.72
2023-02-23T11:24:32.798Z,29.99
2023-02-23T11:27:07.416Z,30.24
2023-02-23T11:29:47.386Z,30.41
2023-02-23T11:32:20.036Z,30.54
2023-02-23T11:35:15.889Z,30.67
2023-02-23T11:37:47.628Z,30.74
2023-02-23T11:40:23.772Z,30.87
2023-02-23T11:43:19.611Z,30.98
2023-02-23T11:45:52.772Z,31.21
2023-02-23T11:48:32.331Z,31.42
2023-02-23T11:51:02.560Z,31.31
2023-02-23T11:53:41.129Z,31.14
2023-02-23T11:56:13.523Z,31.06
2023-02-23T11:58:56.881Z,31.25
2023-02-23T12:01:54.196Z,31.51
2023-02-23T12:04:38.973Z,31.60
2023-02-23T12:07:44.936Z,31.58
2023-02-23T12:10:27.119Z,31.85
2023-02-23T12:13:28.616Z,31.93
2023-02-23T12:16:03.091Z,32.00
2023-02-23T12:18:58.094Z,32.12
2023-02-23T12:21:39.964Z,32.17
2023-02-23T12:24:28.378Z,32.16
2023-02-23T12:27:18.971Z,31.77
2023-02-23T12:30:49.755Z,31.64
2023-02-23T12:33:23.112Z,31.50
2023-02-23T12:36:11.319Z,31.71
2023-02-23T12:39:02.090Z,31.98
2023-02-23T12:41:47.169Z,32.20
2023-02-23T12:44:30.788Z,32.17
2023-02-23T12:47:04.991Z,32.20
2023-02-23T12:49:48.663Z,32.38
2023-02-23T12:52:20.832Z,32.37
2023-02-23T12:54:50.075Z,32.34
2023-02-23T12:57:26.133Z,32.30
2023-02-23T12:59:59.580Z,32.20
2023-02-23T13:02:49.260Z,32.38
2023-02-23T13:05:51.124Z,32.45
2023-02-23T13:08:51.954Z,32.39
2023-02-23T13:11:40.874Z,32.42
2023-02-23T13:14:23.387Z,32.30
2023-02-23T13:17:14.119Z,32.25
2023-02-23T13:19:55.381Z,32.67
2023-02-23T13:22:27.978Z,32.63
2023-02-23T13:24:59.931Z,32.44
2023-02-23T13:27:38.634Z,32.23
2023-02-23T13:30:13.057Z,32.12
2023-02-23T13:32:43.420Z,32.03
2023-02-23T13:35:21.785Z,32.03
2023-02-23T13:38:14.532Z,32.14
2023-02-23T13:40:48.287Z,32.24
2023-02-23T13:43:40.718Z,32.39
2023-02-23T13:46:59.693Z,32.45
2023-02-23T13:49:49.810Z,32.55
2023-02-23T13:52:27.628Z,32.55
2023-02-23T13:54:59.110Z,32.41
2023-02-23T13:57:28.524Z,32.19
2023-02-23T13:59:58.205Z,32.08
2023-02-23T14:02:34.913Z,32.07
2023-02-23T14:05:17.330Z,32.03
2023-02-23T14:07:49.485Z,31.95
2023-02-23T14:10:23.158Z,31.82
2023-02-23T14:13:18.767Z,31.68
2023-02-23T14:16:15.349Z,31.52
2023-02-23T14:18:55.559Z,31.50
2023-02-23T14:21:57.362Z,31.46
2023-02-23T14:24:27.763Z,31.48
2023-02-23T14:27:05.494Z,31.43
2023-02-23T14:30:08.698Z,31.50
2023-02-23T14:32:41.486Z,31.45
2023-02-23T14:35:38.540Z,31.08
2023-02-23T14:38:08.689Z,30.89
2023-02-23T14:40:43.153Z,30.80
2023-02-23T14:43:38.800Z,30.51
2023-02-23T14:46:19.711Z,30.39
2023-02-23T14:49:10.684Z,30.33
2023-02-23T14:51:43.089Z,30.33
2023-02-23T14:54:19.094Z,30.32
2023-02-23T14:56:57.093Z,30.28
2023-02-23T14:59:52.654Z,30.16
2023-02-23T15:02:25.401Z,29.94
2023-02-23T15:04:55.212Z,29.70
2023-02-23T15:07:32.562Z,29.65
2023-02-23T15:10:11.818Z,29.48
2023-02-23T15:12:41.141Z,29.37
2023-02-23T15:15:18.712Z,29.33
2023-02-23T15:17:50.669Z,29.30
2023-02-23T15:20:32.983Z,29.29
2023-02-23T15:23:05.035Z,29.29
2023-02-23T15:25:40.954Z,29.21
2023-02-23T15:28:25.784Z,29.18
2023-02-23T15:31:13.142Z,29.12
2023-02-23T15:33:43.628Z,29.17
2023-02-23T15:36:23.500Z,29.07
2023-02-23T15:38:57.768Z,29.04
2023-02-23T15:41:33.678Z,28.99
2023-02-23T15:44:21.820Z,28.94
2023-02-23T15:46:58.744Z,28.84
2023-02-23T15:49:38.183Z,28.74
2023-02-23T15:52:12.521Z,28.68
2023-02-23T15:54:56.140Z,28.61
2023-02-23T15:57:32.454Z,28.50
2023-02-23T16:00:12.193Z,28.45
2023-02-23T16:02:42.459Z,28.38
2023-02-23T16:05:22.457Z,28.31
2023-02-23T16:08:09.327Z,28.29
2023-02-23T16:10:46.951Z,28.20
2023-02-23T16:13:22.536Z,28.14
2023-02-23T16:15:55.233Z,28.10
2023-02-23T16:18:39.076Z,28.04
2023-02-23T16:21:13.181Z,28.02
2023-02-23T16:23:46.338Z,27.95
2023-02-23T16:26:26.230Z,27.87
2023-02-23T16:29:00.928Z,27.81
2023-02-23T16:32:05.218Z,27.67
2023-02-23T16:34:37.939Z,27.60
2023-02-23T16:37:19.733Z,27.46
2023-02-23T16:39:49.891Z,27.32
2023-02-23T16:42:36.596Z,27.35
2023-02-23T16:45:07.961Z,27.26
2023-02-23T16:47:44.741Z,27.23
2023-02-23T16:50:21.119Z,27.22
2023-02-23T16:52:54.403Z,27.22
2023-02-23T16:55:28.081Z,27.22
2023-02-23T16:57:59.839Z,27.18
2023-02-23T17:00:31.444Z,27.16
2023-02-23T17:03:03.490Z,27.14
2023-02-23T17:05:35.659Z,27.12
2023-02-23T17:08:07.027Z,27.09
2023-02-23T17:10:38.480Z,27.10
2023-02-23T17:13:20.809Z,27.10
2023-02-23T17:15:52.279Z,26.99
2023-02-23T17:18:32.788Z,26.62
2023-02-23T17:21:12.278Z,26.66
2023-02-23T17:23:52.448Z,26.83
2023-02-23T17:26:26.133Z,26.83
2023-02-23T17:28:56.320Z,26.82
2023-02-23T17:31:34.952Z,26.78
2023-02-23T17:34:06.571Z,26.78
2023-02-23T17:36:38.012Z,26.83
2023-02-23T17:39:11.283Z,26.90
2023-02-23T17:41:43.972Z,26.86
2023-02-23T17:44:14.892Z,26.66
2023-02-23T17:46:45.271Z,26.58
2023-02-23T17:49:15.055Z,26.56
2023-02-23T17:51:46.190Z,26.56
2023-02-23T17:54:18.136Z,26.54
2023-02-23T17:56:49.934Z,26.51
2023-02-23T17:59:21.129Z,26.53
2023-02-23T18:01:52.597Z,26.49
2023-02-23T18:04:22.281Z,26.48
2023-02-23T18:06:53.271Z,26.48
2023-02-23T18:09:25.370Z,26.42
2023-02-23T18:12:04.339Z,26.36
2023-02-23T18:14:39.557Z,26.34
2023-02-23T18:17:11.380Z,26.18
2023-02-23T18:19:47.602Z,26.27
2023-02-23T18:22:19.277Z,26.28
2023-02-23T18:24:50.034Z,26.16
2023-02-23T18:27:20.452Z,26.16
2023-02-23T18:29:56.088Z,26.07
2023-02-23T18:32:29.473Z,26.14
2023-02-23T18:35:09.471Z,26.07
2023-02-23T18:37:45.127Z,26.03
2023-02-23T18:40:29.804Z,26.01
2023-02-23T18:43:01.058Z,25.93
2023-02-23T18:45:32.524Z,25.90
2023-02-23T18:48:03.685Z,25.97
2023-02-23T18:50:39.560Z,26.04
2023-02-23T18:53:12.571Z,25.98
2023-02-23T18:55:45.794Z,25.98
2023-02-23T18:58:15.618Z,26.02
2023-02-23T19:00:45.431Z,26.02
2023-02-23T19:03:19.530Z,26.00
2023-02-23T19:05:55.776Z,25.93
2023-02-23T19:08:25.499Z,25.92
2023-02-23T19:10:58.817Z,25.95
2023-02-23T19:13:29.775Z,25.99
2023-02-23T19:16:06.891Z,26.00
2023-02-23T19:18:40.195Z,26.05
2023-02-23T19:21:11.289Z,26.12
2023-02-23T19:23:44.934Z,26.17
2023-02-23T19:26:18.443Z,26.14
2023-02-23T19:28:57.428Z,26.18
2023-02-23T19:31:27.288Z,26.14
2023-02-23T19:33:57.951Z,26.23
2023-02-23T19:36:31.092Z,26.25
2023-02-23T19:39:16.496Z,26.23
2023-02-23T19:41:47.954Z,26.10
2023-02-23T19:44:19.029Z,25.98
2023-02-23T19:46:50.373Z,25.90
2023-02-23T19:49:20.158Z,25.87
2023-02-23T19:51:53.068Z,25.89
2023-02-23T19:54:27.667Z,25.95
2023-02-23T20:00:40.418Z,25.52
2023-02-23T20:03:30.611Z,25.29
2023-02-23T20:06:00.383Z,25.30
2023-02-23T20:08:31.328Z,25.25
2023-02-23T20:11:12.781Z,25.22
2023-02-23T20:13:42.757Z,25.26
2023-02-23T20:16:15.596Z,25.28
2023-02-23T20:18:48.534Z,25.29
2023-02-23T20:21:20.109Z,25.26
2023-02-23T20:23:50.881Z,25.10
2023-02-23T20:26:29.710Z,24.67
2023-02-23T20:29:00.431Z,24.37
2023-02-23T20:31:31.584Z,24.28
2023-02-23T20:34:05.297Z,24.47
2023-02-23T20:36:36.335Z,24.51
2023-02-23T20:39:12.207Z,24.51
2023-02-23T20:41:46.000Z,24.49
2023-02-23T20:44:16.008Z,24.40
2023-02-23T20:46:47.565Z,24.33
2023-02-23T20:49:19.517Z,24.27
2023-02-23T20:51:50.506Z,24.20
2023-02-23T20:54:22.126Z,23.85
2023-02-23T20:56:59.842Z,23.92
2023-02-23T20:59:34.192Z,23.90
2023-02-23T21:02:07.325Z,23.89
2023-02-23T21:04:39.509Z,23.93
2023-02-23T21:07:10.636Z,23.95
2023-02-23T21:09:50.447Z,23.96
2023-02-23T21:12:20.652Z,23.95
2023-02-23T21:14:53.587Z,23.95
2023-02-23T21:17:24.353Z,23.93
2023-02-23T21:19:54.235Z,23.97
2023-02-23T21:22:26.818Z,24.04
2023-02-23T21:24:57.239Z,23.91
2023-02-23T21:27:31.399Z,24.07
2023-02-23T21:30:06.089Z,24.20
2023-02-23T21:32:42.706Z,24.24
2023-02-23T21:35:15.434Z,24.06
2023-02-23T21:37:48.540Z,23.91
2023-02-23T21:40:21.523Z,23.90
2023-02-23T21:42:52.332Z,23.99
2023-02-23T21:45:24.236Z,24.04
2023-02-23T21:47:54.626Z,24.13
2023-02-23T21:50:25.694Z,24.35
2023-02-23T21:52:59.185Z,24.40
2023-02-23T21:55:29.903Z,24.42
2023-02-23T21:58:04.448Z,24.41
2023-02-23T22:00:36.444Z,24.36
2023-02-23T22:03:11.505Z,24.16
2023-02-23T22:05:45.324Z,24.09
2023-02-23T22:08:18.872Z,24.25
2023-02-23T22:10:50.835Z,24.72
2023-02-23T22:13:21.961Z,24.89
2023-02-23T22:15:52.649Z,24.88
2023-02-23T22:18:25.336Z,24.87
2023-02-23T22:21:00.506Z,25.04
2023-02-23T22:23:36.584Z,25.17
2023-02-23T22:26:07.184Z,25.28
2023-02-23T22:28:37.709Z,25.57
2023-02-23T22:31:12.557Z,25.57
2023-02-23T22:33:45.384Z,25.35
2023-02-23T22:36:19.755Z,25.26
2023-02-23T22:38:50.797Z,24.93
2023-02-23T22:41:22.298Z,24.95
2023-02-23T22:43:53.438Z,25.02
2023-02-23T22:46:24.027Z,25.22
2023-02-23T22:48:54.556Z,25.21
2023-02-23T22:51:25.447Z,25.26
2023-02-23T22:53:56.249Z,25.37
2023-02-23T22:56:26.001Z,25.46
2023-02-23T22:58:56.714Z,25.42
2023-02-23T23:01:30.236Z,25.44
2023-02-23T23:04:02.207Z,25.43
2023-02-23T23:06:34.067Z,25.44
2023-02-23T23:09:08.354Z,25.45
2023-02-23T23:11:38.765Z,25.46
2023-02-23T23:14:10.956Z,25.48
2023-02-23T23:16:53.694Z,25.52
2023-02-23T23:19:26.630Z,25.55
2023-02-23T23:21:56.472Z,25.54
2023-02-23T23:24:28.327Z,25.54
2023-02-23T23:27:09.039Z,25.53
2023-02-23T23:29:43.391Z,25.51
2023-02-23T23:32:20.384Z,25.30
2023-02-23T23:34:51.484Z,25.33
2023-02-23T23:37:23.350Z,25.35
2023-02-23T23:40:00.280Z,25.21
2023-02-23T23:42:31.072Z,25.19
2023-02-23T23:45:01.451Z,25.16
2023-02-23T23:47:35.467Z,25.16
2023-02-23T23:50:15.612Z,25.18
2023-02-23T23:52:46.675Z,25.36
2023-02-23T23:55:18.593Z,25.71
2023-02-23T23:57:49.964Z,26.04
